Cle Elum, WA

9:43 PM PDT on September 30, 2014 (GMT -0700)
MesoWest South Blewett WA US WA DOT | Change Station
CLOSE
Current Station
Personal Weather Station
Location: Cle Elum, WA
Elevation: 2529 ft
Nearby Weather Stations

Elev 2529 ft 47.25 °N, 120.69 °W | Updated 1 hour ago

Clear
Clear
44 °F
Feels Like 44 °F
N
1
Wind Variable Wind from NNE
Gusts 1.0 mph

Today
High -- | Low -- °F
--% Chance of Precip.
Yesterday
High -- | Low -- °F
Precip. -- in
7:00 AM 6:44 PM
Waxing Crescent, 43% visible
Pressure 30.06 in
Visibility 10.0 miles
Clouds Clear
Windchill 44 °F
Dew Point 37 °F
Humidity 76%
Rainfall -999.00 in
Snow Depth 0 in , 0 in , 0 in
UV 0 out of 12
Pollen 2.40 out of 12
Air Quality Not available.
Flu Activity Not available.
METAR KELN 010353Z AUTO 34010KT 10SM CLR 12/04 A3006 RMK AO2 SLP178 T01170044

More Conditions Fewer Conditions

Pressure 30.06 in
Visibility 10.0 miles
Clouds Clear
Windchill 44 °F
Dew Point 37 °F
Humidity 76%
Rainfall -999.00 in
Snow Depth 0 in , 0 in , 0 in
UV 0 out of 12
Pollen 2.40 out of 12
Air Quality Not available.
Flu Activity Not available.
METAR KELN 010353Z AUTO 34010KT 10SM CLR 12/04 A3006 RMK AO2 SLP178 T01170044

More Conditions Fewer Conditions

10-Day Weather Forecast

Almanac

Astronomy

Sep. 30, 2014 Rise Set
Actual Time 7:00 AM PDT 6:44 PM PDT
Civil Twilight 6:29 AM PDT 7:14 PM PDT
Nautical Twilight 5:54 AM PDT 7:49 PM PDT
Astronomical Twilight 5:18 AM PDT 8:26 PM PDT
Moon 1:31 PM PDT (9/30) 11:01 PM PDT (9/30)
Length of Visible Light 12h 44m
Length of Day
11h 43m
Tomorrow will be 3m 22s shorter.
Waxing Crescent, 43% of the Moon is Illuminated
Oct 1
Waxing Crescent
Oct 1
First Quarter
Oct 8
Full
Oct 15
Last Quarter
Oct 23
New

Yesterday's Extremes

State Highs State Lows

Community

WunderPhotos

Upload Photos

1,757,847 photos uploaded!

Nearby

Snow Depth

Station Depth Elevation
Olallie Meadows 0 in 3700 ft
Bunchgrass Meadow 0 in 5000 ft
Mount Crag 0 in 4050 ft
Trough 0 in 5300 ft
Bumping Ridge 0 in 4600 ft

Earthquake Activity

City Distance Mag. Time & Date
No recent earthquake activity has been reported nearby.
Minimum magnitude displayed is 2.5.

Coastal Water Temperatures

Place Temperature
No Stations Reporting

Nearby Weather Stations